Time;durP1;ratioP1;P1;durP2;ratioP2;P2;SDS_P1;SDS_P2;PMS_P1;PMS_P2;Temp;Humidity;BMP_temperature;BMP_pressure;BME280_temperature;BME280_humidity;BME280_pressure;Samples;Min_cycle;Max_cycle;Signal;HPM_P1;HPM_P2
2021/04/29 00:01:19;;;;;;;10.45;7.25;;;11.40;99.90;;;;;;5030341;28;20396;-81
2021/04/29 00:03:45;;;;;;;10.98;8.30;;;;;;;;;;5042751;28;20187;-80
2021/04/29 00:06:11;;;;;;;10.65;7.57;;;11.40;99.90;;;;;;5032312;28;20040;-80
2021/04/29 00:08:37;;;;;;;11.30;7.22;;;11.40;99.90;;;;;;5038736;28;20036;-78
2021/04/29 00:11:05;;;;;;;12.43;8.45;;;11.40;99.90;;;;;;5042088;28;20028;-80
2021/04/29 00:13:31;;;;;;;14.52;8.80;;;11.80;99.90;;;;;;5028334;28;20035;-81
2021/04/29 00:15:56;;;;;;;10.40;7.00;;;11.40;99.90;;;;;;5024854;28;20104;-79
2021/04/29 00:18:22;;;;;;;10.82;7.28;;;11.40;99.90;;;;;;5041965;28;20053;-82
2021/04/29 00:20:48;;;;;;;9.48;7.05;;;11.30;99.90;;;;;;5024042;28;20538;-80
2021/04/29 00:23:13;;;;;;;12.15;7.35;;;11.30;99.90;;;;;;5025477;28;20523;-79
2021/04/29 00:25:39;;;;;;;12.18;7.95;;;11.30;99.90;;;;;;5027648;28;20041;-78
2021/04/29 00:28:05;;;;;;;10.55;7.75;;;11.20;99.90;;;;;;5025603;28;20036;-79
2021/04/29 00:30:30;;;;;;;11.60;7.82;;;11.40;99.90;;;;;;5027373;28;20082;-80
2021/04/29 00:32:56;;;;;;;10.18;7.45;;;11.30;99.90;;;;;;5025894;28;20045;-81
2021/04/29 00:35:22;;;;;;;11.75;7.45;;;;;;;;;;5037101;28;20020;-79
2021/04/29 00:37:48;;;;;;;11.38;7.60;;;11.30;99.90;;;;;;5038596;28;20044;-81
2021/04/29 00:40:15;;;;;;;12.82;7.57;;;11.30;99.90;;;;;;5024608;28;20122;-81
2021/04/29 00:42:42;;;;;;;12.13;7.88;;;11.20;99.90;;;;;;5039345;28;20029;-82
2021/04/29 00:45:12;;;;;;;12.48;8.27;;;11.30;99.90;;;;;;5043376;28;20089;-81
2021/04/29 00:47:39;;;;;;;10.23;7.60;;;11.30;99.90;;;;;;5024920;28;20025;-81
2021/04/29 00:50:11;;;;;;;12.82;8.93;;;11.30;99.90;;;;;;5028335;28;20029;-79
2021/04/29 00:52:38;;;;;;;11.88;7.88;;;11.30;99.90;;;;;;5036865;28;20017;-80
2021/04/29 00:55:06;;;;;;;11.18;7.70;;;11.30;99.90;;;;;;5033312;28;21471;-80
2021/04/29 00:57:32;;;;;;;16.98;10.10;;;11.30;99.90;;;;;;5026695;28;20044;-79
2021/04/29 00:59:59;;;;;;;12.98;8.90;;;11.30;99.90;;;;;;5042826;28;20227;-77
2021/04/29 01:02:26;;;;;;;12.93;8.80;;;11.20;99.90;;;;;;5030200;28;20061;-81
2021/04/29 01:05:02;;;;;;;10.63;8.10;;;11.30;99.90;;;;;;5026457;28;20644;-81
2021/04/29 01:07:35;;;;;;;12.75;7.85;;;11.30;99.90;;;;;;5027233;28;20092;-78
2021/04/29 01:10:10;;;;;;;11.88;7.53;;;11.40;99.90;;;;;;5021323;28;20036;-82
2021/04/29 01:12:44;;;;;;;11.95;7.72;;;11.50;99.90;;;;;;5024262;28;20021;-80
2021/04/29 01:15:11;;;;;;;11.32;7.70;;;11.40;99.90;;;;;;5044555;28;20071;-82
2021/04/29 01:17:40;;;;;;;13.07;8.52;;;11.40;99.90;;;;;;5030259;28;20442;-81
2021/04/29 01:20:14;;;;;;;12.32;8.10;;;11.40;99.90;;;;;;5032917;28;20442;-83
2021/04/29 01:23:05;;;;;;;12.90;8.27;;;11.40;99.90;;;;;;5026387;28;20143;-80
2021/04/29 01:25:31;;;;;;;;;;;11.40;99.90;;;;;;5043039;28;20581;-80
2021/04/29 01:27:58;;;;;;;13.30;8.77;;;11.30;99.90;;;;;;5029464;28;19912;-79
2021/04/29 01:30:24;;;;;;;12.50;9.27;;;11.30;99.90;;;;;;5030509;28;20116;-80
2021/04/29 01:32:50;;;;;;;12.80;9.75;;;11.20;99.90;;;;;;5030020;28;20029;-79
2021/04/29 01:35:16;;;;;;;13.00;9.00;;;11.20;99.90;;;;;;5010678;28;20033;-80
2021/04/29 01:37:42;;;;;;;13.18;10.07;;;11.20;99.90;;;;;;5040603;28;20064;-78
2021/04/29 01:40:10;;;;;;;11.52;9.25;;;11.30;99.90;;;;;;5032392;28;20534;-80
2021/04/29 01:42:37;;;;;;;12.32;8.93;;;11.30;99.90;;;;;;5042363;28;20033;-77
2021/04/29 01:45:07;;;;;;;13.50;9.68;;;11.30;99.90;;;;;;5030806;28;20041;-79
2021/04/29 01:47:34;;;;;;;13.23;10.23;;;11.30;99.90;;;;;;5044690;28;20029;-80
2021/04/29 01:50:04;;;;;;;13.80;9.60;;;11.30;99.90;;;;;;5045286;28;20036;-81
2021/04/29 01:52:30;;;;;;;12.15;9.27;;;11.40;99.90;;;;;;5050270;28;20028;-80
2021/04/29 01:54:56;;;;;;;12.52;9.23;;;11.90;99.90;;;;;;5033590;28;20026;-80
2021/04/29 01:57:22;;;;;;;12.23;9.27;;;11.40;99.90;;;;;;5028622;28;20029;-77
2021/04/29 01:59:48;;;;;;;14.70;9.75;;;11.40;99.90;;;;;;5027912;28;20056;-80
2021/04/29 02:02:14;;;;;;;15.40;10.48;;;12.90;99.90;;;;;;5031444;28;20040;-80
2021/04/29 02:04:39;;;;;;;13.82;10.00;;;11.30;99.90;;;;;;5013061;28;20033;-80
2021/04/29 02:07:05;;;;;;;14.35;10.05;;;12.20;99.90;;;;;;5028310;28;20040;-81
2021/04/29 02:09:30;;;;;;;12.75;9.80;;;11.40;99.90;;;;;;5035531;28;20059;-82
2021/04/29 02:12:01;;;;;;;12.93;9.95;;;11.40;99.90;;;;;;5044789;28;20099;-77
2021/04/29 02:14:38;;;;;;;12.60;9.65;;;11.40;99.90;;;;;;5028810;28;20080;-81
2021/04/29 02:17:14;;;;;;;13.05;10.15;;;11.40;99.90;;;;;;5028740;28;20033;-80
2021/04/29 02:19:41;;;;;;;15.18;9.27;;;11.30;99.90;;;;;;5041979;28;20040;-78
2021/04/29 02:22:08;;;;;;;13.10;9.98;;;11.30;99.90;;;;;;5038821;28;20021;-84
2021/04/29 02:24:35;;;;;;;13.70;9.50;;;11.30;99.90;;;;;;5033212;28;20046;-79
2021/04/29 02:27:02;;;;;;;14.20;9.55;;;11.30;99.90;;;;;;5032098;28;20096;-80
2021/04/29 02:29:28;;;;;;;11.23;9.13;;;11.60;99.90;;;;;;5028571;28;20033;-81
2021/04/29 02:31:54;;;;;;;14.15;9.90;;;13.10;99.90;;;;;;5043650;28;20077;-79
2021/04/29 02:34:20;;;;;;;12.55;9.02;;;11.30;99.90;;;;;;5042455;28;20582;-78
2021/04/29 02:36:47;;;;;;;14.38;9.73;;;11.30;99.90;;;;;;5032291;28;20096;-76
2021/04/29 02:39:13;;;;;;;15.65;9.43;;;14.50;99.90;;;;;;5027534;28;20051;-79
2021/04/29 02:41:39;;;;;;;13.20;9.43;;;12.50;99.90;;;;;;5028306;28;20053;-80
2021/04/29 02:44:06;;;;;;;14.75;9.20;;;11.10;99.90;;;;;;5031010;28;20021;-80
2021/04/29 02:46:32;;;;;;;13.73;9.80;;;11.70;99.90;;;;;;5028790;28;20849;-78
2021/04/29 02:48:58;;;;;;;14.45;9.65;;;11.20;99.90;;;;;;5028707;28;20021;-78
2021/04/29 02:51:23;;;;;;;14.02;9.93;;;11.10;99.90;;;;;;5033462;28;20078;-78
2021/04/29 02:53:50;;;;;;;15.55;10.05;;;11.10;99.90;;;;;;5030394;28;20029;-78
2021/04/29 02:56:16;;;;;;;16.98;10.48;;;11.00;99.90;;;;;;5030855;28;20375;-79
2021/04/29 02:58:47;;;;;;;14.60;10.02;;;11.10;99.90;;;;;;5039118;28;20074;-80
2021/04/29 03:01:13;;;;;;;13.32;10.43;;;12.30;99.90;;;;;;5042845;28;20064;-83
2021/04/29 03:03:39;;;;;;;14.50;11.15;;;11.00;99.90;;;;;;5031287;28;20034;-77
2021/04/29 03:06:05;;;;;;;17.70;12.02;;;11.00;99.90;;;;;;5042100;28;20084;-81
2021/04/29 03:08:31;;;;;;;16.05;12.00;;;10.90;99.90;;;;;;5029124;28;20037;-77
2021/04/29 03:10:56;;;;;;;20.50;12.48;;;10.90;99.90;;;;;;5043457;28;20029;-81
2021/04/29 03:13:22;;;;;;;18.50;13.32;;;10.70;99.90;;;;;;5041125;28;20055;-78
2021/04/29 03:15:48;;;;;;;19.58;13.93;;;10.80;99.90;;;;;;5032941;28;20371;-79
2021/04/29 03:18:13;;;;;;;20.27;14.52;;;10.80;99.90;;;;;;5031382;28;20079;-79
2021/04/29 03:20:40;;;;;;;18.10;13.32;;;10.80;99.90;;;;;;5038291;28;20479;-80
2021/04/29 03:23:05;;;;;;;18.17;13.32;;;10.80;99.90;;;;;;5022641;28;20112;-81
2021/04/29 03:25:31;;;;;;;16.10;12.02;;;10.80;99.90;;;;;;5035319;28;20052;-82
2021/04/29 03:27:57;;;;;;;15.82;12.13;;;10.80;99.90;;;;;;5040386;28;20040;-82
2021/04/29 03:30:22;;;;;;;20.40;11.63;;;10.80;99.90;;;;;;5054163;28;20088;-81
2021/04/29 03:32:48;;;;;;;15.57;12.02;;;;;;;;;;5042698;28;20399;-80
2021/04/29 03:35:14;;;;;;;15.70;11.90;;;10.80;99.90;;;;;;5034352;28;20483;-81
2021/04/29 03:37:40;;;;;;;17.98;11.30;;;;;;;;;;5040133;28;20025;-78
2021/04/29 03:40:06;;;;;;;14.55;10.82;;;10.80;99.90;;;;;;5045490;28;20033;-76
2021/04/29 03:42:32;;;;;;;15.60;10.70;;;10.90;99.90;;;;;;5040703;28;20039;-78
2021/04/29 03:44:58;;;;;;;15.45;10.73;;;;;;;;;;5056488;28;20021;-78
2021/04/29 03:47:24;;;;;;;15.45;11.48;;;10.90;99.90;;;;;;5042449;28;20052;-79
2021/04/29 03:49:49;;;;;;;13.57;10.65;;;10.80;99.90;;;;;;5040534;28;20111;-80
2021/04/29 03:52:15;;;;;;;15.55;11.07;;;10.80;99.90;;;;;;5037490;28;20551;-80
2021/04/29 03:54:41;;;;;;;16.23;11.73;;;10.90;99.90;;;;;;5049623;28;20035;-81
2021/04/29 03:57:07;;;;;;;15.05;10.57;;;12.10;99.90;;;;;;5033172;28;20021;-81
2021/04/29 03:59:33;;;;;;;14.73;11.05;;;10.80;99.90;;;;;;5041275;28;20025;-78
2021/04/29 04:01:58;;;;;;;14.70;10.68;;;13.90;99.90;;;;;;5042772;28;20067;-79
2021/04/29 04:04:24;;;;;;;14.15;10.20;;;11.80;99.90;;;;;;5046369;28;20505;-80
2021/04/29 04:06:50;;;;;;;14.75;11.30;;;10.80;99.90;;;;;;5032485;28;20038;-78
2021/04/29 04:09:15;;;;;;;17.40;10.63;;;10.80;99.90;;;;;;5048794;28;22865;-79
2021/04/29 04:11:41;;;;;;;14.25;10.65;;;10.80;99.90;;;;;;5046009;28;20024;-81
2021/04/29 04:14:06;;;;;;;16.75;10.00;;;11.00;99.90;;;;;;5038389;28;20395;-82
2021/04/29 04:16:32;;;;;;;13.13;10.25;;;10.80;99.90;;;;;;5057022;28;20021;-85
2021/04/29 04:18:58;;;;;;;15.52;10.85;;;11.90;99.90;;;;;;5028529;28;20084;-82
2021/04/29 04:21:25;;;;;;;14.45;10.00;;;10.80;99.90;;;;;;5045734;28;20028;-80
2021/04/29 04:23:51;;;;;;;14.23;10.05;;;10.80;99.90;;;;;;5054201;28;20021;-81
2021/04/29 04:26:16;;;;;;;12.13;9.90;;;10.80;99.90;;;;;;5048142;28;20049;-77
2021/04/29 04:28:42;;;;;;;13.85;9.75;;;10.80;99.90;;;;;;5052054;28;20040;-80
2021/04/29 04:31:08;;;;;;;15.23;9.55;;;12.50;99.90;;;;;;5038422;28;20025;-80
2021/04/29 04:33:33;;;;;;;22.30;9.65;;;10.90;99.90;;;;;;5032063;28;20029;-81
2021/04/29 04:35:59;;;;;;;13.05;10.10;;;11.60;99.90;;;;;;5021394;28;20048;-81
2021/04/29 04:38:25;;;;;;;15.23;9.32;;;11.00;99.90;;;;;;5038049;28;20076;-79
2021/04/29 04:40:51;;;;;;;14.55;9.73;;;10.90;99.90;;;;;;5043226;28;20284;-81
2021/04/29 04:43:16;;;;;;;12.13;8.80;;;12.20;99.90;;;;;;5028243;28;20088;-78
2021/04/29 04:45:43;;;;;;;12.60;9.43;;;10.90;99.90;;;;;;5031256;28;20029;-79
2021/04/29 04:48:12;;;;;;;13.85;9.30;;;11.00;99.90;;;;;;5027886;28;20037;-78
2021/04/29 04:50:38;;;;;;;13.00;8.77;;;10.90;99.90;;;;;;5053119;28;20082;-81
2021/04/29 04:53:04;;;;;;;11.90;9.00;;;11.50;99.90;;;;;;5031720;28;20037;-81
2021/04/29 04:55:30;;;;;;;11.20;8.90;;;10.90;99.90;;;;;;5060699;28;20699;-81
2021/04/29 04:57:57;;;;;;;14.82;9.45;;;10.90;99.90;;;;;;5058226;28;20032;-80
2021/04/29 05:00:23;;;;;;;13.45;9.48;;;10.80;99.90;;;;;;5057154;28;20029;-82
2021/04/29 05:02:48;;;;;;;12.57;9.60;;;10.90;99.90;;;;;;5045396;28;20756;-80
2021/04/29 05:05:14;;;;;;;14.40;9.50;;;10.90;99.90;;;;;;5042660;28;20052;-79
2021/04/29 05:07:40;;;;;;;17.17;10.73;;;10.90;99.90;;;;;;5050433;28;20298;-84
2021/04/29 05:10:07;;;;;;;14.88;10.13;;;10.90;99.90;;;;;;5037953;28;20049;-80
2021/04/29 05:12:33;;;;;;;13.90;10.15;;;10.90;99.90;;;;;;5045842;28;20025;-78
2021/04/29 05:14:59;;;;;;;13.05;9.48;;;11.00;99.90;;;;;;5028643;28;20113;-81
2021/04/29 05:17:24;;;;;;;12.90;9.57;;;10.90;99.90;;;;;;5035579;28;20051;-77
2021/04/29 05:19:50;;;;;;;13.60;9.60;;;10.90;99.90;;;;;;5040909;28;22010;-81
2021/04/29 05:22:16;;;;;;;14.45;10.07;;;;;;;;;;5049208;28;20463;-80
2021/04/29 05:24:42;;;;;;;13.23;9.98;;;11.00;99.90;;;;;;5049299;28;20160;-78
2021/04/29 05:27:08;;;;;;;12.82;9.00;;;11.00;99.90;;;;;;5041191;28;20087;-81
2021/04/29 05:29:34;;;;;;;13.27;9.25;;;11.70;99.90;;;;;;5043108;28;20000;-81
2021/04/29 05:32:00;;;;;;;14.02;9.07;;;11.10;99.90;;;;;;5044073;28;20025;-75
2021/04/29 05:34:26;;;;;;;15.40;9.88;;;;;;;;;;5049550;28;20068;-80
2021/04/29 05:36:51;;;;;;;15.15;10.35;;;11.10;99.90;;;;;;5030059;28;20033;-80
2021/04/29 05:39:17;;;;;;;16.25;10.20;;;11.30;99.90;;;;;;5058007;28;20104;-79
2021/04/29 05:41:43;;;;;;;13.55;9.35;;;11.20;99.90;;;;;;5061221;28;20084;-81
2021/04/29 05:44:09;;;;;;;13.40;9.40;;;;;;;;;;5062527;28;20025;-79
2021/04/29 05:46:34;;;;;;;12.50;9.07;;;11.30;99.90;;;;;;5033518;28;20029;-77
2021/04/29 05:49:02;;;;;;;13.85;9.43;;;11.40;99.90;;;;;;5044457;28;20020;-78
2021/04/29 05:51:29;;;;;;;16.02;9.10;;;11.40;99.90;;;;;;5041181;28;20025;-79
2021/04/29 05:53:55;;;;;;;13.98;9.38;;;11.50;99.90;;;;;;5038784;28;20025;-78
2021/04/29 05:56:21;;;;;;;14.15;9.73;;;11.50;99.90;;;;;;5064128;28;20087;-79
2021/04/29 05:58:46;;;;;;;14.27;9.32;;;14.00;99.90;;;;;;5045014;28;20025;-79
2021/04/29 06:01:12;;;;;;;13.15;9.68;;;11.40;99.90;;;;;;5044442;28;20033;-80
2021/04/29 06:03:40;;;;;;;15.15;9.85;;;11.30;99.90;;;;;;5049628;28;20036;-79
2021/04/29 06:06:06;;;;;;;12.32;10.05;;;11.40;99.90;;;;;;5047645;28;20025;-80
2021/04/29 06:08:32;;;;;;;15.18;10.45;;;11.40;99.90;;;;;;5057507;28;20032;-78
2021/04/29 06:10:57;;;;;;;14.93;10.77;;;11.40;99.90;;;;;;5055953;28;20056;-79
2021/04/29 06:13:23;;;;;;;15.30;10.40;;;13.40;99.90;;;;;;5056332;28;20040;-80
2021/04/29 06:15:49;;;;;;;14.85;9.95;;;11.40;99.90;;;;;;5055813;28;20025;-78
2021/04/29 06:18:14;;;;;;;12.68;9.40;;;14.40;99.90;;;;;;5053469;28;20368;-79
2021/04/29 06:20:41;;;;;;;14.52;10.10;;;12.80;99.90;;;;;;5054914;28;20063;-79
2021/04/29 06:23:07;;;;;;;14.23;9.82;;;11.50;99.90;;;;;;5047488;28;20044;-78
2021/04/29 06:25:33;;;;;;;15.63;10.23;;;11.50;99.90;;;;;;5057078;28;20021;-80
2021/04/29 06:27:58;;;;;;;12.65;9.50;;;11.50;99.90;;;;;;5055021;28;20036;-79
2021/04/29 06:30:24;;;;;;;13.23;9.77;;;11.80;99.90;;;;;;5040559;28;20033;-80
2021/04/29 06:32:50;;;;;;;13.52;9.85;;;;;;;;;;5038086;28;20032;-79
2021/04/29 06:35:16;;;;;;;12.00;9.57;;;11.50;99.90;;;;;;5038514;28;20368;-79
2021/04/29 06:37:42;;;;;;;15.00;10.07;;;12.30;99.90;;;;;;5037998;28;20044;-78
2021/04/29 06:40:08;;;;;;;15.68;9.80;;;13.40;99.90;;;;;;5041544;28;22644;-80
2021/04/29 06:42:34;;;;;;;13.52;10.70;;;11.70;99.90;;;;;;5070748;28;20025;-79
2021/04/29 06:44:59;;;;;;;12.68;10.15;;;11.80;99.90;;;;;;5046694;28;20024;-79
2021/04/29 06:47:27;;;;;;;14.30;9.95;;;11.90;99.90;;;;;;5065153;28;20029;-79
2021/04/29 06:49:54;;;;;;;18.70;10.75;;;11.80;99.90;;;;;;5049561;28;20080;-78
2021/04/29 06:52:20;;;;;;;14.88;11.23;;;11.80;99.90;;;;;;5063784;28;20080;-79
2021/04/29 06:54:46;;;;;;;14.90;11.43;;;11.80;99.90;;;;;;5044862;28;20033;-79
2021/04/29 06:57:13;;;;;;;17.00;11.10;;;11.70;99.90;;;;;;5051666;28;20035;-78
2021/04/29 06:59:38;;;;;;;16.40;11.27;;;11.80;99.90;;;;;;5043424;28;20084;-78
2021/04/29 07:02:04;;;;;;;15.57;11.52;;;11.90;99.90;;;;;;5061955;28;20033;-76
2021/04/29 07:04:30;;;;;;;15.30;11.48;;;12.20;99.90;;;;;;5037487;28;20061;-77
2021/04/29 07:06:55;;;;;;;15.07;10.85;;;14.00;99.90;;;;;;5041602;28;20499;-77
2021/04/29 07:09:21;;;;;;;16.50;11.18;;;14.60;99.90;;;;;;5059409;28;20036;-78
2021/04/29 07:11:47;;;;;;;15.95;12.02;;;13.50;99.90;;;;;;5056930;28;20032;-78
2021/04/29 07:14:12;;;;;;;17.30;11.95;;;12.50;99.90;;;;;;5046498;28;20021;-78
2021/04/29 07:16:38;;;;;;;18.10;12.05;;;;;;;;;;5063557;28;20044;-78
2021/04/29 07:19:04;;;;;;;15.93;12.07;;;12.50;99.90;;;;;;5060765;28;20037;-79
2021/04/29 07:21:30;;;;;;;16.08;12.70;;;12.30;99.90;;;;;;5047707;28;20091;-78
2021/04/29 07:23:56;;;;;;;17.10;12.52;;;12.30;99.90;;;;;;5054568;28;20025;-77
2021/04/29 07:26:22;;;;;;;18.65;12.27;;;12.30;99.90;;;;;;5044429;28;20025;-78
2021/04/29 07:28:47;;;;;;;15.10;11.43;;;12.40;99.90;;;;;;5033592;28;20051;-79
2021/04/29 07:31:15;;;;;;;15.32;11.95;;;12.80;99.90;;;;;;5031728;28;20033;-74
2021/04/29 07:33:41;;;;;;;18.63;12.30;;;12.80;99.90;;;;;;5043037;28;20025;-78
2021/04/29 07:36:07;;;;;;;16.60;12.07;;;12.00;99.90;;;;;;5040036;28;20029;-77
2021/04/29 07:38:33;;;;;;;19.02;12.10;;;12.70;99.90;;;;;;5033348;28;20060;-77
2021/04/29 07:40:59;;;;;;;22.70;12.90;;;14.10;99.90;;;;;;5039992;28;20025;-77
2021/04/29 07:43:25;;;;;;;18.35;11.98;;;;;;;;;;5040435;28;20040;-79
2021/04/29 07:45:52;;;;;;;16.42;11.85;;;;;;;;;;5026493;28;20102;-77
2021/04/29 07:48:18;;;;;;;20.58;11.90;;;12.90;99.90;;;;;;5046528;28;20044;-79
2021/04/29 07:50:43;;;;;;;16.58;11.35;;;13.20;99.90;;;;;;5053625;28;20116;-78
2021/04/29 07:53:09;;;;;;;14.82;10.88;;;13.20;99.90;;;;;;5048893;28;20053;-81
2021/04/29 07:55:36;;;;;;;15.45;11.60;;;13.20;99.90;;;;;;5037513;28;20396;-78
2021/04/29 07:58:02;;;;;;;14.50;11.55;;;13.40;99.90;;;;;;5030633;28;20096;-79
2021/04/29 08:00:28;;;;;;;16.48;12.15;;;13.30;99.90;;;;;;5028432;28;20056;-80
2021/04/29 08:02:54;;;;;;;14.45;10.85;;;;;;;;;;5027809;28;20045;-79
2021/04/29 08:05:20;;;;;;;16.35;11.00;;;13.50;99.20;;;;;;5038260;28;20029;-79
2021/04/29 08:07:46;;;;;;;18.27;11.15;;;15.20;98.80;;;;;;5039919;28;20080;-79
2021/04/29 08:10:12;;;;;;;17.45;11.52;;;13.70;97.20;;;;;;5026360;28;20037;-77
2021/04/29 08:12:38;;;;;;;14.85;11.88;;;13.90;96.40;;;;;;5040802;28;20377;-79
2021/04/29 08:15:07;;;;;;;18.00;11.43;;;14.00;96.20;;;;;;5018974;28;20029;-80
2021/04/29 08:17:33;;;;;;;16.17;11.18;;;13.90;96.40;;;;;;5025964;28;20036;-79
2021/04/29 08:19:58;;;;;;;13.68;9.90;;;13.80;97.10;;;;;;5023495;28;20123;-79
2021/04/29 08:22:26;;;;;;;17.02;10.23;;;13.80;97.10;;;;;;5039231;28;20621;-77
2021/04/29 08:24:56;;;;;;;16.25;11.02;;;13.40;95.90;;;;;;5027806;28;20094;-78
2021/04/29 08:27:23;;;;;;;14.70;10.43;;;13.50;96.20;;;;;;5027344;28;20119;-82
2021/04/29 08:29:48;;;;;;;13.68;10.50;;;14.00;96.80;;;;;;5038770;28;20060;-78
2021/04/29 08:32:14;;;;;;;14.73;11.02;;;13.60;96.50;;;;;;5038443;28;20021;-76
2021/04/29 08:34:40;;;;;;;15.48;10.65;;;13.60;97.60;;;;;;5020769;28;20039;-78
2021/04/29 08:37:08;;;;;;;15.70;11.07;;;13.80;97.30;;;;;;5037500;28;20033;-77
2021/04/29 08:39:33;;;;;;;13.98;10.70;;;13.80;96.90;;;;;;5037967;28;20411;-80
2021/04/29 08:42:00;;;;;;;16.98;11.05;;;14.00;95.40;;;;;;5040087;28;20033;-79
2021/04/29 08:44:25;;;;;;;17.63;11.65;;;14.00;95.70;;;;;;5026785;28;20033;-78
2021/04/29 08:46:51;;;;;;;14.25;11.80;;;13.90;95.90;;;;;;5023258;28;20037;-78
2021/04/29 08:49:20;;;;;;;13.70;10.55;;;13.80;96.60;;;;;;5040972;28;20256;-77
2021/04/29 08:51:46;;;;;;;16.33;11.43;;;13.70;96.80;;;;;;5042427;28;20120;-81
2021/04/29 08:54:12;;;;;;;16.08;12.40;;;13.50;97.00;;;;;;5021871;28;20029;-78
2021/04/29 08:56:38;;;;;;;14.25;11.27;;;13.70;97.60;;;;;;5038015;28;20080;-80
2021/04/29 08:59:04;;;;;;;14.45;11.10;;;13.80;96.70;;;;;;5025741;28;20099;-81
2021/04/29 09:01:41;;;;;;;16.30;10.82;;;14.00;95.60;;;;;;5023046;28;20029;-80
2021/04/29 09:04:12;;;;;;;12.95;10.45;;;14.30;95.50;;;;;;5025798;28;20021;-80
2021/04/29 09:06:38;;;;;;;16.25;11.32;;;14.30;95.60;;;;;;5022470;28;20229;-77
2021/04/29 09:09:05;;;;;;;16.70;11.60;;;14.90;93.80;;;;;;5018459;28;20033;-77
2021/04/29 09:11:30;;;;;;;15.85;11.15;;;15.30;93.60;;;;;;5031463;28;20060;-81
2021/04/29 09:13:58;;;;;;;16.10;10.90;;;15.40;93.80;;;;;;5043334;28;20059;-79
2021/04/29 09:16:25;;;;;;;15.68;11.15;;;;;;;;;;5046005;28;20028;-80
2021/04/29 09:18:51;;;;;;;14.02;11.05;;;15.80;92.20;;;;;;5041239;28;20029;-81
2021/04/29 09:21:16;;;;;;;18.83;12.48;;;16.10;91.20;;;;;;5019376;28;20033;-80
2021/04/29 09:23:45;;;;;;;16.02;10.82;;;16.20;90.90;;;;;;5037918;28;20029;-79
2021/04/29 09:26:12;;;;;;;18.88;11.13;;;16.40;90.50;;;;;;5042245;28;20434;-76
2021/04/29 09:28:40;;;;;;;14.18;9.68;;;16.60;87.50;;;;;;5021937;28;20024;-79
2021/04/29 09:31:13;;;;;;;13.75;10.43;;;16.60;87.20;;;;;;5037862;28;20509;-79
2021/04/29 09:33:42;;;;;;;14.75;10.95;;;16.50;87.10;;;;;;5027277;28;20025;-81
2021/04/29 09:36:20;;;;;;;13.77;10.48;;;16.30;90.20;;;;;;5026686;28;20430;-82
2021/04/29 09:38:55;;;;;;;14.55;10.43;;;16.20;91.20;;;;;;5040496;28;20048;-79
2021/04/29 09:41:23;;;;;;;14.23;11.02;;;15.50;92.80;;;;;;5041455;28;20040;-79
2021/04/29 09:43:57;;;;;;;15.98;10.65;;;15.50;93.30;;;;;;5024916;28;20038;-82
2021/04/29 09:46:24;;;;;;;14.80;11.20;;;15.30;93.20;;;;;;5027352;28;20083;-78
2021/04/29 09:48:50;;;;;;;17.67;11.63;;;15.10;93.10;;;;;;5050454;28;20315;-81
2021/04/29 09:51:19;;;;;;;20.40;12.95;;;14.70;94.70;;;;;;5027556;28;20029;-78
2021/04/29 09:53:50;;;;;;;21.13;13.13;;;14.70;94.90;;;;;;5029873;28;20017;-79
2021/04/29 09:56:18;;;;;;;18.63;12.13;;;14.40;94.40;;;;;;5038218;28;20036;-80
2021/04/29 09:58:47;;;;;;;18.25;13.13;;;15.60;94.90;;;;;;5030438;28;20032;-81
2021/04/29 10:01:13;;;;;;;19.55;12.98;;;;;;;;;;5044355;28;20543;-80
2021/04/29 10:03:41;;;;;;;16.40;13.63;;;14.20;95.10;;;;;;5031272;28;20029;-80
2021/04/29 10:06:11;;;;;;;22.45;13.18;;;15.50;96.10;;;;;;5035777;28;20040;-77
2021/04/29 10:08:37;;;;;;;19.52;12.70;;;14.00;95.20;;;;;;5031684;28;20080;-79
2021/04/29 10:11:04;;;;;;;17.98;13.25;;;14.30;94.20;;;;;;5026286;28;20036;-80
2021/04/29 10:13:38;;;;;;;20.75;13.15;;;14.20;94.40;;;;;;5028637;28;20031;-79
2021/04/29 10:16:04;;;;;;;16.52;12.70;;;14.40;95.00;;;;;;5029599;28;20112;-80
2021/04/29 10:18:29;;;;;;;16.02;12.00;;;14.60;94.50;;;;;;5029489;28;20120;-80
2021/04/29 10:20:59;;;;;;;19.05;11.98;;;15.00;92.60;;;;;;5047223;28;20088;-79
2021/04/29 10:23:25;;;;;;;16.45;10.77;;;15.30;92.10;;;;;;5033382;28;20041;-80
2021/04/29 10:25:56;;;;;;;14.20;10.25;;;15.30;92.10;;;;;;5038204;28;20060;-77
2021/04/29 10:28:37;;;;;;;14.18;10.80;;;15.90;91.40;;;;;;5035417;28;20037;-83
2021/04/29 10:31:17;;;;;;;17.33;12.07;;;15.10;91.30;;;;;;5032731;28;20049;-77
2021/04/29 10:34:03;;;;;;;22.08;12.88;;;15.10;92.00;;;;;;5027656;28;20064;-78
2021/04/29 10:36:41;;;;;;;17.52;12.45;;;14.90;92.70;;;;;;5033690;28;20024;-80
2021/04/29 10:39:24;;;;;;;16.85;13.23;;;14.90;93.10;;;;;;5033808;28;20029;-80
2021/04/29 10:42:10;;;;;;;22.38;11.65;;;15.00;91.70;;;;;;5048792;28;20056;-79
2021/04/29 10:44:44;;;;;;;16.77;11.07;;;14.90;90.50;;;;;;5026192;28;20172;-78
2021/04/29 10:47:23;;;;;;;18.88;11.40;;;14.90;91.20;;;;;;5033386;28;20029;-80
2021/04/29 10:49:51;;;;;;;15.13;11.23;;;14.90;90.30;;;;;;5057547;28;20048;-81
2021/04/29 10:52:17;;;;;;;17.15;11.18;;;15.00;89.70;;;;;;5057973;28;20104;-80
2021/04/29 10:54:53;;;;;;;15.25;10.02;;;15.30;85.90;;;;;;5048582;28;20028;-79
2021/04/29 10:57:19;;;;;;;14.73;10.30;;;15.80;83.20;;;;;;5035454;28;20033;-80
2021/04/29 10:59:55;;;;;;;13.90;9.60;;;16.10;81.20;;;;;;5049310;28;20112;-80
2021/04/29 11:02:21;;;;;;;13.07;8.35;;;16.50;77.70;;;;;;5058104;28;20029;-78
2021/04/29 11:04:51;;;;;;;14.05;9.20;;;;;;;;;;5042965;28;20033;-78
2021/04/29 11:07:17;;;;;;;14.65;9.75;;;16.60;76.20;;;;;;5050207;28;20518;-78
2021/04/29 11:09:43;;;;;;;12.07;8.05;;;16.60;76.00;;;;;;5051692;28;20032;-78
2021/04/29 11:12:09;;;;;;;18.48;7.65;;;;;;;;;;5055761;28;20025;-80
2021/04/29 11:14:44;;;;;;;15.73;7.68;;;16.90;74.30;;;;;;5036515;28;20025;-80
2021/04/29 11:17:21;;;;;;;12.75;7.38;;;17.00;71.70;;;;;;5038902;28;20064;-79
2021/04/29 11:19:47;;;;;;;11.52;7.22;;;16.80;69.80;;;;;;5032929;28;20036;-79
2021/04/29 11:22:27;;;;;;;11.88;7.00;;;16.70;71.40;;;;;;5041667;28;20047;-80
2021/04/29 11:24:54;;;;;;;8.75;6.30;;;16.60;70.30;;;;;;5024042;28;20032;-75
2021/04/29 11:27:29;;;;;;;8.05;5.85;;;16.30;68.80;;;;;;5040967;28;20080;-80
2021/04/29 11:30:02;;;;;;;10.02;6.72;;;16.10;68.80;;;;;;5024690;28;20033;-79
2021/04/29 11:32:29;;;;;;;10.40;6.30;;;16.40;67.50;;;;;;5046260;28;20029;-76
2021/04/29 11:34:55;;;;;;;9.05;5.75;;;16.60;66.00;;;;;;5046757;28;20032;-81
2021/04/29 11:37:23;;;;;;;8.77;6.00;;;17.30;62.50;;;;;;5026681;28;20509;-78
2021/04/29 11:39:59;;;;;;;7.03;4.75;;;17.60;62.40;;;;;;5021397;28;20152;-79
2021/04/29 11:42:33;;;;;;;9.57;6.47;;;17.70;63.00;;;;;;5025050;28;20112;-78
2021/04/29 11:45:07;;;;;;;11.27;6.50;;;17.50;62.90;;;;;;5031068;28;20032;-77
2021/04/29 11:47:33;;;;;;;10.75;6.10;;;17.40;61.80;;;;;;5033854;28;20028;-78
2021/04/29 11:49:59;;;;;;;9.75;5.35;;;;;;;;;;5031529;28;20025;-78
2021/04/29 11:52:26;;;;;;;10.13;5.82;;;17.10;60.40;;;;;;5049479;28;20024;-77
2021/04/29 11:54:52;;;;;;;8.90;5.90;;;;;;;;;;5046121;28;20690;-78
2021/04/29 11:57:18;;;;;;;11.55;6.28;;;;;;;;;;5032071;28;20041;-78
2021/04/29 11:59:50;;;;;;;11.30;6.10;;;16.30;64.40;;;;;;5036310;28;20048;-78
2021/04/29 12:02:17;;;;;;;9.38;6.13;;;;;;;;;;5042808;28;20028;-79
2021/04/29 12:04:45;;;;;;;10.98;7.00;;;;;;;;;;5054231;28;20780;-81
2021/04/29 12:07:11;;;;;;;15.93;7.32;;;15.90;73.20;;;;;;5051420;28;20040;-77
2021/04/29 12:09:37;;;;;;;10.77;7.18;;;15.80;73.60;;;;;;5031736;28;20077;-81
2021/04/29 12:12:14;;;;;;;13.73;7.72;;;15.70;76.80;;;;;;5028958;28;20017;-78
2021/04/29 12:14:48;;;;;;;12.50;7.13;;;15.60;78.50;;;;;;5037274;28;20028;-80
2021/04/29 12:17:14;;;;;;;9.38;5.35;;;16.60;79.30;;;;;;5043828;28;20039;-79
2021/04/29 12:19:44;;;;;;;10.00;6.18;;;15.40;76.50;;;;;;5033188;28;20021;-77
2021/04/29 12:22:13;;;;;;;9.35;5.75;;;15.20;75.60;;;;;;5044435;28;20032;-77
2021/04/29 12:24:44;;;;;;;8.80;5.35;;;15.10;76.40;;;;;;5039747;28;20087;-79
2021/04/29 12:27:23;;;;;;;7.18;4.55;;;15.20;76.70;;;;;;5046173;28;20174;-79
2021/04/29 12:30:06;;;;;;;5.97;4.28;;;14.90;75.80;;;;;;5042430;28;20025;-79
2021/04/29 12:32:45;;;;;;;6.60;3.92;;;14.90;76.20;;;;;;5045116;28;20574;-80
2021/04/29 12:35:13;;;;;;;6.40;4.03;;;12.00;73.00;;;;;;5045323;28;20033;-77
2021/04/29 12:37:55;;;;;;;6.22;3.92;;;15.30;74.00;;;;;;5015456;28;20033;-78
2021/04/29 12:40:32;;;;;;;6.13;3.80;;;15.30;74.30;;;;;;5031606;28;20204;-82
2021/04/29 12:43:21;;;;;;;6.00;3.22;;;15.80;69.70;;;;;;5034041;28;20029;-79